createdAt,value
2023-01-29T00:02:15.917Z,11.45
2023-01-29T00:04:43.682Z,10.65
2023-01-29T00:07:11.045Z,8.27
2023-01-29T00:09:38.205Z,9.15
2023-01-29T00:12:05.222Z,9.70
2023-01-29T00:14:32.087Z,10.80
2023-01-29T00:16:59.168Z,9.38
2023-01-29T00:19:27.872Z,10.90
2023-01-29T00:21:57.445Z,10.38
2023-01-29T00:24:24.443Z,10.50
2023-01-29T00:26:51.694Z,11.57
2023-01-29T00:29:18.721Z,7.45
2023-01-29T00:31:47.655Z,8.95
2023-01-29T00:34:14.650Z,10.55
2023-01-29T00:36:44.594Z,10.43
2023-01-29T00:39:18.717Z,9.10
2023-01-29T00:42:04.266Z,9.20
2023-01-29T00:44:50.051Z,8.85
2023-01-29T00:47:36.657Z,10.57
2023-01-29T00:50:10.024Z,10.85
2023-01-29T00:52:37.081Z,10.35
2023-01-29T00:55:06.030Z,9.60
2023-01-29T00:57:35.655Z,11.65
2023-01-29T01:00:06.378Z,8.40
2023-01-29T01:02:51.798Z,9.77
2023-01-29T01:05:20.194Z,12.63
2023-01-29T01:07:49.705Z,11.00
2023-01-29T01:10:45.196Z,12.00
2023-01-29T01:13:12.832Z,8.10
2023-01-29T01:15:40.828Z,9.00
2023-01-29T01:18:09.985Z,11.73
2023-01-29T01:20:37.582Z,11.18
2023-01-29T01:23:07.410Z,10.63
2023-01-29T01:25:34.459Z,12.40
2023-01-29T01:28:02.414Z,13.23
2023-01-29T01:30:29.714Z,9.77
2023-01-29T01:32:56.945Z,10.02
2023-01-29T01:35:23.971Z,14.60
2023-01-29T01:37:53.974Z,10.27
2023-01-29T01:40:23.412Z,10.75
2023-01-29T01:42:53.162Z,10.68
2023-01-29T01:45:33.439Z,11.88
2023-01-29T01:48:18.256Z,14.45
2023-01-29T01:50:55.960Z,12.93
2023-01-29T01:53:31.038Z,10.52
2023-01-29T01:56:03.903Z,10.82
2023-01-29T01:58:40.918Z,10.35
2023-01-29T02:01:09.542Z,9.65
2023-01-29T02:04:02.524Z,9.10
2023-01-29T02:09:37.066Z,10.55
2023-01-29T02:12:07.295Z,10.77
2023-01-29T02:14:40.433Z,10.93
2023-01-29T02:17:18.900Z,10.05
2023-01-29T02:20:04.893Z,13.80
2023-01-29T02:25:49.113Z,14.00
2023-01-29T02:28:15.979Z,15.25
2023-01-29T02:31:01.989Z,11.95
2023-01-29T02:33:43.975Z,15.23
2023-01-29T02:36:40.807Z,13.68
2023-01-29T02:39:25.270Z,14.45
2023-01-29T02:41:59.091Z,13.13
2023-01-29T02:44:34.944Z,15.90
2023-01-29T02:47:09.329Z,15.45
2023-01-29T02:49:46.729Z,15.13
2023-01-29T02:52:36.405Z,15.45
2023-01-29T02:55:19.323Z,15.55
2023-01-29T03:00:30.330Z,14.48
2023-01-29T03:03:18.244Z,16.25
2023-01-29T03:05:59.487Z,14.63
2023-01-29T03:08:37.650Z,12.63
2023-01-29T03:11:07.304Z,20.50
2023-01-29T03:13:41.678Z,13.38
2023-01-29T03:16:15.151Z,14.45
2023-01-29T03:18:47.078Z,16.20
2023-01-29T03:21:55.399Z,15.13
2023-01-29T03:24:56.180Z,15.45
2023-01-29T03:27:46.755Z,14.52
2023-01-29T03:30:36.354Z,20.20
2023-01-29T03:33:08.367Z,14.60
2023-01-29T03:35:42.232Z,18.98
2023-01-29T03:38:12.808Z,17.73
2023-01-29T03:41:19.731Z,16.67
2023-01-29T03:44:34.318Z,17.52
2023-01-29T03:47:27.559Z,16.50
2023-01-29T03:50:07.724Z,16.98
2023-01-29T03:52:56.594Z,18.70
2023-01-29T03:55:49.858Z,19.02
2023-01-29T03:58:35.164Z,16.70
2023-01-29T04:01:15.126Z,18.65
2023-01-29T04:03:50.027Z,17.75
2023-01-29T04:06:28.226Z,17.27
2023-01-29T04:09:10.924Z,15.38
2023-01-29T04:11:42.297Z,19.13
2023-01-29T04:14:09.925Z,16.85
2023-01-29T04:16:42.259Z,18.27
2023-01-29T04:19:09.385Z,20.42
2023-01-29T04:21:37.961Z,20.80
2023-01-29T04:24:06.570Z,21.15
2023-01-29T04:26:53.713Z,21.05
2023-01-29T04:29:40.819Z,20.67
2023-01-29T04:32:54.717Z,18.95
2023-01-29T04:35:49.116Z,17.77
2023-01-29T04:38:54.929Z,20.25
2023-01-29T04:41:36.085Z,21.40
2023-01-29T04:44:22.125Z,19.50
2023-01-29T04:46:52.717Z,21.55
2023-01-29T04:50:03.451Z,17.90
2023-01-29T04:52:58.609Z,20.20
2023-01-29T04:55:28.819Z,19.75
2023-01-29T04:58:13.186Z,18.15
2023-01-29T05:00:47.681Z,21.20
2023-01-29T05:03:16.566Z,22.17
2023-01-29T05:05:48.236Z,20.33
2023-01-29T05:08:19.598Z,19.27
2023-01-29T05:10:49.556Z,21.80
2023-01-29T05:13:19.347Z,24.75
2023-01-29T05:16:02.304Z,22.42
2023-01-29T05:18:30.819Z,23.45
2023-01-29T05:21:02.546Z,20.15
2023-01-29T05:23:31.198Z,20.77
2023-01-29T05:25:58.340Z,22.23
2023-01-29T05:28:25.501Z,21.60
2023-01-29T05:30:55.867Z,21.92
2023-01-29T05:33:25.791Z,23.48
2023-01-29T05:35:53.552Z,20.23
2023-01-29T05:38:22.591Z,21.30
2023-01-29T05:40:49.849Z,21.83
2023-01-29T05:43:24.607Z,21.63
2023-01-29T05:48:24.000Z,22.02
2023-01-29T05:50:51.267Z,20.33
2023-01-29T05:53:18.468Z,22.20
2023-01-29T05:55:46.898Z,23.92
2023-01-29T06:03:08.327Z,18.25
2023-01-29T06:05:38.991Z,24.58
2023-01-29T06:08:06.426Z,23.63
2023-01-29T06:10:33.331Z,21.10
2023-01-29T06:13:01.391Z,23.85
2023-01-29T06:15:28.821Z,22.50
2023-01-29T06:17:56.480Z,24.23
2023-01-29T06:20:25.044Z,27.45
2023-01-29T06:22:51.941Z,27.40
2023-01-29T06:25:19.069Z,24.75
2023-01-29T06:27:46.114Z,22.23
2023-01-29T06:30:14.911Z,25.20
2023-01-29T06:32:42.274Z,22.70
2023-01-29T06:35:10.321Z,24.50
2023-01-29T06:37:37.575Z,28.20
2023-01-29T06:40:05.374Z,25.45
2023-01-29T06:42:32.267Z,24.55
2023-01-29T06:44:59.173Z,20.80
2023-01-29T06:47:27.979Z,23.83
2023-01-29T06:49:56.706Z,22.48
2023-01-29T06:52:25.495Z,26.70
2023-01-29T06:54:52.563Z,24.42
2023-01-29T06:57:19.487Z,23.55
2023-01-29T06:59:46.938Z,23.27
2023-01-29T07:02:14.529Z,25.33
2023-01-29T07:04:42.888Z,22.58
2023-01-29T07:07:13.465Z,22.13
2023-01-29T07:09:42.586Z,24.63
2023-01-29T07:12:12.619Z,24.83
2023-01-29T07:14:39.739Z,21.45
2023-01-29T07:17:06.791Z,24.50
2023-01-29T07:19:33.952Z,25.23
2023-01-29T07:22:05.482Z,22.17
2023-01-29T07:24:32.867Z,20.40
2023-01-29T07:26:59.850Z,22.90
2023-01-29T07:29:27.432Z,25.20
2023-01-29T07:31:54.553Z,28.42
2023-01-29T07:34:21.518Z,25.52
2023-01-29T07:36:48.401Z,30.42
2023-01-29T07:39:15.245Z,26.15
2023-01-29T07:41:42.162Z,28.17
2023-01-29T07:44:09.353Z,23.77
2023-01-29T07:46:36.711Z,32.42
2023-01-29T07:49:03.647Z,28.77
2023-01-29T07:51:30.587Z,29.88
2023-01-29T07:54:00.990Z,26.85
2023-01-29T07:56:27.890Z,28.42
2023-01-29T07:58:54.991Z,27.85
2023-01-29T08:01:22.044Z,27.38
2023-01-29T08:03:50.643Z,30.35
2023-01-29T08:06:18.354Z,27.17
2023-01-29T08:08:45.851Z,24.10
2023-01-29T08:11:12.749Z,26.00
2023-01-29T08:13:39.887Z,26.75
2023-01-29T08:16:07.643Z,23.48
2023-01-29T08:18:34.832Z,26.90
2023-01-29T08:21:02.233Z,26.25
2023-01-29T08:23:29.649Z,21.90
2023-01-29T08:25:56.800Z,24.83
2023-01-29T08:28:24.454Z,24.27
2023-01-29T08:30:51.658Z,23.02
2023-01-29T08:33:23.707Z,25.70
2023-01-29T08:35:54.033Z,22.48
2023-01-29T08:38:21.431Z,24.00
2023-01-29T08:40:48.611Z,23.52
2023-01-29T08:43:15.656Z,23.08
2023-01-29T08:45:46.536Z,21.67
2023-01-29T08:48:14.069Z,30.30
2023-01-29T08:50:40.941Z,24.95
2023-01-29T08:53:09.334Z,23.40
2023-01-29T08:55:39.469Z,22.15
2023-01-29T08:58:08.254Z,25.50
2023-01-29T09:00:36.279Z,20.40
2023-01-29T09:03:08.116Z,22.08
2023-01-29T09:05:39.143Z,21.48
2023-01-29T09:08:08.939Z,25.75
2023-01-29T09:10:36.475Z,21.27
2023-01-29T09:13:04.571Z,17.05
2023-01-29T09:15:31.722Z,25.88
2023-01-29T09:17:58.848Z,25.83
2023-01-29T09:20:25.972Z,27.10
2023-01-29T09:22:56.644Z,22.48
2023-01-29T09:25:24.313Z,17.95
2023-01-29T09:27:54.346Z,17.05
2023-01-29T09:30:21.444Z,24.90
2023-01-29T09:32:55.705Z,23.95
2023-01-29T09:35:23.698Z,24.67
2023-01-29T09:37:52.384Z,24.13
2023-01-29T09:40:31.438Z,22.83
2023-01-29T09:43:22.744Z,21.92
2023-01-29T09:45:58.149Z,23.52
2023-01-29T09:48:32.886Z,21.30
2023-01-29T09:51:05.928Z,21.58
2023-01-29T09:54:01.788Z,27.48
2023-01-29T09:56:29.196Z,25.10
2023-01-29T09:59:01.620Z,21.88
2023-01-29T10:01:38.001Z,23.00
2023-01-29T10:04:13.039Z,25.95
2023-01-29T10:06:39.841Z,23.25
2023-01-29T10:09:33.950Z,18.13
2023-01-29T10:12:19.687Z,18.88
2023-01-29T10:15:00.838Z,25.02
2023-01-29T10:17:50.304Z,17.40
2023-01-29T10:20:42.043Z,22.67
2023-01-29T10:23:31.534Z,21.65
2023-01-29T10:26:00.131Z,21.05
2023-01-29T10:28:48.584Z,25.00
2023-01-29T10:31:33.530Z,24.48
2023-01-29T10:34:31.786Z,23.35
2023-01-29T10:37:00.313Z,24.65
2023-01-29T10:42:25.114Z,21.42
2023-01-29T10:45:16.128Z,26.20
2023-01-29T10:48:06.716Z,23.40
2023-01-29T10:51:02.423Z,21.40
2023-01-29T10:53:52.609Z,24.05
2023-01-29T10:56:34.103Z,22.60
2023-01-29T10:59:18.963Z,23.98
2023-01-29T11:01:46.049Z,23.98
2023-01-29T11:04:14.593Z,22.25
2023-01-29T11:15:15.881Z,23.80
2023-01-29T11:18:26.945Z,21.05
2023-01-29T11:21:04.957Z,24.88
2023-01-29T11:23:35.190Z,22.77
2023-01-29T11:26:05.128Z,21.83
2023-01-29T11:28:46.193Z,26.58
2023-01-29T11:31:17.873Z,20.83
2023-01-29T11:33:47.289Z,23.48
2023-01-29T11:36:33.007Z,25.02
2023-01-29T11:39:14.491Z,27.55
2023-01-29T11:41:56.916Z,24.13
2023-01-29T11:44:42.881Z,24.23
2023-01-29T11:47:16.761Z,25.58
2023-01-29T11:49:54.828Z,20.65
2023-01-29T11:52:34.395Z,25.60
2023-01-29T11:55:07.018Z,21.95
2023-01-29T11:57:37.623Z,24.13
2023-01-29T12:00:23.822Z,22.98
2023-01-29T12:02:56.683Z,31.30
2023-01-29T12:05:26.691Z,29.92
2023-01-29T12:08:02.586Z,28.90
2023-01-29T12:10:34.963Z,29.55
2023-01-29T12:13:11.454Z,32.38
2023-01-29T12:15:40.934Z,30.40
2023-01-29T12:18:30.425Z,24.27
2023-01-29T12:21:02.603Z,27.08
2023-01-29T12:23:53.002Z,23.52
2023-01-29T12:26:31.227Z,22.17
2023-01-29T12:29:35.843Z,32.03
2023-01-29T12:32:11.633Z,31.23
2023-01-29T12:35:05.197Z,30.52
2023-01-29T12:37:47.129Z,25.95
2023-01-29T12:40:17.015Z,29.63
2023-01-29T12:42:51.761Z,33.15
2023-01-29T12:45:21.502Z,26.42
2023-01-29T12:47:59.399Z,29.92
2023-01-29T12:50:33.701Z,26.85
2023-01-29T12:53:20.243Z,29.95
2023-01-29T12:55:55.552Z,30.65
2023-01-29T12:58:29.888Z,27.10
2023-01-29T13:01:02.649Z,22.63
2023-01-29T13:03:59.373Z,25.75
2023-01-29T13:06:32.142Z,30.08
2023-01-29T13:09:05.502Z,23.08
2023-01-29T13:11:41.756Z,33.28
2023-01-29T13:14:14.653Z,30.17
2023-01-29T13:16:46.371Z,30.13
2023-01-29T13:19:30.413Z,35.88
2023-01-29T13:22:01.433Z,31.63
2023-01-29T13:24:39.137Z,33.33
2023-01-29T13:27:09.098Z,26.50
2023-01-29T13:29:38.955Z,25.40
2023-01-29T13:32:06.327Z,38.35
2023-01-29T13:34:37.434Z,29.33
2023-01-29T13:37:11.803Z,38.90
2023-01-29T13:39:46.624Z,36.83
2023-01-29T13:42:21.751Z,35.58
2023-01-29T13:44:54.618Z,33.05
2023-01-29T13:47:29.669Z,41.10
2023-01-29T13:50:02.743Z,39.03
2023-01-29T13:52:42.996Z,34.60
2023-01-29T13:55:19.945Z,39.55
2023-01-29T13:57:47.263Z,28.80
2023-01-29T14:00:24.721Z,32.22
2023-01-29T14:02:54.712Z,36.72
2023-01-29T14:05:31.987Z,31.95
2023-01-29T14:08:00.619Z,32.28
2023-01-29T14:10:31.182Z,34.50
2023-01-29T14:13:04.255Z,33.95
2023-01-29T14:15:36.740Z,30.27
2023-01-29T14:18:09.410Z,35.92
2023-01-29T14:20:46.121Z,36.28
2023-01-29T14:23:31.032Z,31.02
2023-01-29T14:26:03.703Z,32.03
2023-01-29T14:28:33.589Z,27.05
2023-01-29T14:31:00.988Z,28.55
2023-01-29T14:33:35.226Z,29.73
2023-01-29T14:36:09.527Z,29.08
2023-01-29T14:38:41.503Z,27.33
2023-01-29T14:41:33.511Z,26.88
2023-01-29T14:44:38.113Z,34.42
2023-01-29T14:47:06.493Z,26.92
2023-01-29T14:49:56.801Z,21.30
2023-01-29T14:52:43.486Z,20.83
2023-01-29T14:55:25.431Z,27.38
2023-01-29T14:57:59.192Z,19.35
2023-01-29T15:00:48.945Z,29.05
2023-01-29T15:03:33.544Z,25.05
2023-01-29T15:06:01.362Z,18.50
2023-01-29T15:09:16.459Z,23.50
2023-01-29T15:12:18.929Z,19.17
2023-01-29T15:15:25.333Z,22.00
2023-01-29T15:18:03.691Z,24.52
2023-01-29T15:20:36.425Z,25.05
2023-01-29T15:23:05.113Z,22.65
2023-01-29T15:25:38.104Z,22.38
2023-01-29T15:28:08.716Z,19.40
2023-01-29T15:30:36.402Z,22.00
2023-01-29T15:33:04.284Z,23.20
2023-01-29T15:35:41.008Z,18.50
2023-01-29T15:38:17.921Z,14.32
2023-01-29T15:40:56.719Z,24.58
2023-01-29T15:43:27.072Z,23.38
2023-01-29T15:46:00.326Z,19.13
2023-01-29T15:48:42.370Z,14.43
2023-01-29T15:51:15.753Z,18.90
2023-01-29T15:54:05.317Z,23.65
2023-01-29T15:56:40.628Z,22.95
2023-01-29T15:59:15.446Z,21.60
2023-01-29T16:01:43.120Z,32.40
2023-01-29T16:04:15.201Z,30.95
2023-01-29T16:06:43.880Z,26.67
2023-01-29T16:09:18.711Z,29.35
2023-01-29T16:11:47.210Z,15.77
2023-01-29T16:14:19.353Z,23.92
2023-01-29T16:16:48.698Z,30.67
2023-01-29T16:19:24.891Z,25.10
2023-01-29T16:22:00.886Z,30.95
2023-01-29T16:24:29.455Z,12.63
2023-01-29T16:29:40.153Z,20.13
2023-01-29T16:32:09.386Z,22.77
2023-01-29T16:34:45.934Z,30.83
2023-01-29T16:37:26.677Z,26.67
2023-01-29T16:42:25.366Z,18.55
2023-01-29T16:45:02.451Z,25.95
2023-01-29T16:47:38.365Z,17.88
2023-01-29T16:50:27.601Z,26.63
2023-01-29T16:52:58.355Z,24.48
2023-01-29T16:55:25.778Z,25.95
2023-01-29T16:57:58.316Z,26.30
2023-01-29T17:00:30.475Z,26.02
2023-01-29T17:03:17.643Z,26.27
2023-01-29T17:05:45.759Z,21.90
2023-01-29T17:08:30.763Z,35.78
2023-01-29T17:10:58.319Z,26.17
2023-01-29T17:13:38.667Z,29.98
2023-01-29T17:16:22.477Z,30.70
2023-01-29T17:18:51.940Z,31.27
2023-01-29T17:21:19.143Z,17.13
2023-01-29T17:23:45.990Z,26.48
2023-01-29T17:26:15.126Z,27.75
2023-01-29T17:28:43.053Z,27.77
2023-01-29T17:31:11.761Z,27.45
2023-01-29T17:33:44.243Z,29.42
2023-01-29T17:36:17.723Z,31.40
2023-01-29T17:38:45.958Z,28.77
2023-01-29T17:41:27.028Z,32.10
2023-01-29T17:43:54.784Z,24.38
2023-01-29T17:46:21.857Z,19.15
2023-01-29T17:48:50.045Z,22.23
2023-01-29T17:51:18.302Z,23.98
2023-01-29T17:53:47.011Z,20.55
2023-01-29T17:56:17.466Z,23.30
2023-01-29T17:58:44.258Z,27.15
2023-01-29T18:01:11.542Z,16.60
2023-01-29T18:03:39.807Z,23.52
2023-01-29T18:06:09.193Z,15.25
2023-01-29T18:08:38.343Z,29.23
2023-01-29T18:11:07.299Z,32.47
2023-01-29T18:13:36.345Z,28.13
2023-01-29T18:16:03.768Z,24.17
2023-01-29T18:18:30.766Z,26.17
2023-01-29T18:20:58.863Z,29.70
2023-01-29T18:23:25.870Z,25.33
2023-01-29T18:25:54.863Z,23.55
2023-01-29T18:28:22.233Z,29.40
2023-01-29T18:30:53.398Z,31.20
2023-01-29T18:33:26.180Z,26.95
2023-01-29T18:36:10.597Z,28.73
2023-01-29T18:41:36.261Z,22.63
2023-01-29T18:44:12.207Z,30.33
2023-01-29T18:46:39.309Z,18.80
2023-01-29T18:49:06.608Z,25.65
2023-01-29T18:51:35.695Z,31.13
2023-01-29T18:54:05.612Z,12.80
2023-01-29T18:57:11.114Z,23.45
2023-01-29T18:59:33.429Z,28.83
2023-01-29T19:02:01.825Z,18.35
2023-01-29T19:04:32.107Z,33.70
2023-01-29T19:06:59.395Z,28.98
2023-01-29T19:09:26.608Z,15.70
2023-01-29T19:11:53.586Z,29.30
2023-01-29T19:14:20.905Z,26.00
2023-01-29T19:16:51.242Z,22.88
2023-01-29T19:19:19.237Z,30.80
2023-01-29T19:21:59.162Z,23.52
2023-01-29T19:27:35.956Z,28.33
2023-01-29T19:30:09.780Z,29.48
2023-01-29T19:35:36.917Z,25.05
2023-01-29T19:38:25.331Z,23.67
2023-01-29T19:41:13.313Z,27.67
2023-01-29T19:43:57.948Z,32.85
2023-01-29T19:46:50.074Z,26.73
2023-01-29T19:49:35.485Z,26.30
2023-01-29T19:52:41.392Z,30.17
2023-01-29T19:55:22.778Z,30.55
2023-01-29T19:58:05.293Z,24.15
2023-01-29T20:00:35.672Z,24.48
2023-01-29T20:03:46.951Z,27.05
2023-01-29T20:06:39.251Z,26.20
2023-01-29T20:09:15.340Z,21.63
2023-01-29T20:12:09.851Z,17.08
2023-01-29T20:14:49.035Z,24.08
2023-01-29T20:17:26.347Z,20.20
2023-01-29T20:19:53.515Z,28.55
2023-01-29T20:22:21.269Z,21.15
2023-01-29T20:24:48.334Z,31.48
2023-01-29T20:27:33.886Z,28.02
2023-01-29T20:30:02.372Z,29.30
2023-01-29T20:32:39.674Z,29.10
2023-01-29T20:38:17.432Z,28.27
2023-01-29T20:41:08.241Z,29.83
2023-01-29T20:47:00.180Z,26.13
2023-01-29T20:49:28.906Z,27.08
2023-01-29T20:51:57.099Z,26.90
2023-01-29T20:54:39.238Z,21.98
2023-01-29T20:57:09.092Z,22.88
2023-01-29T20:59:41.728Z,26.08
2023-01-29T21:02:13.756Z,19.42
2023-01-29T21:04:42.562Z,25.20
2023-01-29T21:07:27.582Z,21.05
2023-01-29T21:10:21.491Z,27.13
2023-01-29T21:12:56.997Z,24.40
2023-01-29T21:15:40.694Z,26.20
2023-01-29T21:18:16.613Z,22.42
2023-01-29T21:20:47.729Z,25.52
2023-01-29T21:26:35.976Z,26.80
2023-01-29T21:29:30.446Z,21.73
2023-01-29T21:35:28.101Z,30.00
2023-01-29T21:38:38.151Z,29.77
2023-01-29T21:41:24.844Z,25.60
2023-01-29T21:44:04.669Z,28.75
2023-01-29T21:46:46.392Z,25.00
2023-01-29T21:49:20.816Z,23.65
2023-01-29T21:51:50.306Z,25.88
2023-01-29T21:54:37.275Z,26.98
2023-01-29T21:57:54.615Z,25.33
2023-01-29T22:00:28.606Z,21.67
2023-01-29T22:06:33.497Z,27.58
2023-01-29T22:09:24.902Z,18.60
2023-01-29T22:12:01.339Z,26.38
2023-01-29T22:14:46.819Z,27.85
2023-01-29T22:17:27.098Z,26.52
2023-01-29T22:19:56.633Z,26.13
2023-01-29T22:22:53.718Z,23.75
2023-01-29T22:25:37.841Z,15.95
2023-01-29T22:28:30.686Z,22.17
2023-01-29T22:31:18.517Z,27.60
2023-01-29T22:36:48.035Z,35.38
2023-01-29T22:39:25.909Z,28.42
2023-01-29T22:42:20.774Z,31.13
2023-01-29T22:45:37.577Z,27.63
2023-01-29T22:51:30.936Z,30.70
2023-01-29T22:54:09.002Z,29.27
2023-01-29T22:56:39.387Z,32.30
2023-01-29T22:59:22.822Z,29.15
2023-01-29T23:02:09.297Z,25.13
2023-01-29T23:04:58.294Z,33.33
2023-01-29T23:07:45.227Z,29.95
2023-01-29T23:10:26.787Z,26.48
2023-01-29T23:15:59.487Z,28.98
2023-01-29T23:18:32.835Z,25.48
2023-01-29T23:21:27.543Z,33.22
2023-01-29T23:24:08.208Z,32.67
2023-01-29T23:27:01.974Z,33.25
2023-01-29T23:29:32.245Z,26.13
2023-01-29T23:32:13.242Z,27.10
2023-01-29T23:35:05.149Z,27.30
2023-01-29T23:37:35.108Z,25.45
2023-01-29T23:40:03.526Z,26.30
2023-01-29T23:42:30.725Z,17.50
2023-01-29T23:44:57.713Z,12.75
2023-01-29T23:47:24.889Z,20.25
2023-01-29T23:49:53.327Z,9.70
2023-01-29T23:52:22.260Z,8.05
2023-01-29T23:54:52.475Z,7.88
2023-01-29T23:57:30.116Z,8.88
